Time;durP1;ratioP1;P1;durP2;ratioP2;P2;SDS_P1;SDS_P2;PMS_P1;PMS_P2;Temp;Humidity;BMP_temperature;BMP_pressure;BME280_temperature;BME280_humidity;BME280_pressure;Samples;Min_cycle;Max_cycle;Signal;HPM_P1;HPM_P2
2022/11/28 00:01:21;;;;;;;;;;;12.90;57.80;;;;;;5062567;28;20007;-88
2022/11/28 00:03:47;;;;;;;;;;;12.90;57.30;;;;;;5068901;28;19920;-89
2022/11/28 00:06:13;;;;;;;;;;;12.90;57.40;;;;;;5062324;28;19995;-88
2022/11/28 00:08:39;;;;;;;;;;;12.90;57.80;;;;;;5059039;28;19955;-90
2022/11/28 00:11:05;;;;;;;;;;;12.90;57.50;;;;;;5053737;28;20124;-89
2022/11/28 00:13:31;;;;;;;;;;;12.80;57.20;;;;;;5054991;28;20279;-90
2022/11/28 00:16:00;;;;;;;;;;;12.80;56.60;;;;;;5052179;28;19913;-90
2022/11/28 00:18:26;;;;;;;;;;;12.90;57.30;;;;;;5054327;28;19920;-89
2022/11/28 00:20:51;;;;;;;;;;;12.90;57.30;;;;;;5036659;28;19913;-89
2022/11/28 00:23:17;;;;;;;;;;;12.90;57.60;;;;;;5034400;28;20373;-89
2022/11/28 00:25:42;;;;;;;;;;;12.90;57.40;;;;;;5035652;28;19913;-89
2022/11/28 00:28:08;;;;;;;;;;;12.90;57.20;;;;;;5057429;28;19919;-88
2022/11/28 00:30:37;;;;;;;;;;;13.00;57.50;;;;;;5041825;28;19913;-89
2022/11/28 00:33:02;;;;;;;;;;;13.00;57.80;;;;;;5035704;28;19909;-89
2022/11/28 00:35:29;;;;;;;;;;;13.00;57.60;;;;;;5078181;28;19939;-89
2022/11/28 00:37:54;;;;;;;;;;;13.00;57.40;;;;;;5071603;28;19913;-90
2022/11/28 00:40:20;;;;;;;;;;;13.00;57.60;;;;;;5070636;28;20378;-90
2022/11/28 00:42:46;;;;;;;;;;;13.10;57.10;;;;;;5073531;28;20405;-89
2022/11/28 00:45:12;;;;;;;;;;;13.10;56.50;;;;;;5061947;28;20391;-88
2022/11/28 00:47:38;;;;;;;;;;;13.10;56.90;;;;;;5069750;28;19909;-89
2022/11/28 00:50:04;;;;;;;;;;;13.10;56.60;;;;;;5071234;28;19931;-88
2022/11/28 00:52:31;;;;;;;;;;;13.10;56.30;;;;;;5052671;28;19915;-88
2022/11/28 00:54:56;;;;;;;;;;;13.10;56.80;;;;;;5070949;28;20381;-89
2022/11/28 00:57:22;;;;;;;;;;;13.20;56.80;;;;;;5055001;28;19940;-89
2022/11/28 00:59:48;;;;;;;;;;;13.20;57.20;;;;;;5055635;28;19991;-88
2022/11/28 01:02:14;;;;;;;;;;;13.20;55.90;;;;;;5049304;28;19913;-88
2022/11/28 01:04:40;;;;;;;;;;;13.10;56.50;;;;;;5054803;28;19923;-90
2022/11/28 01:07:06;;;;;;;;;;;13.10;56.60;;;;;;5069848;28;19912;-88
2022/11/28 01:09:34;;;;;;;;;;;13.00;56.90;;;;;;5036873;28;19970;-88
2022/11/28 01:12:00;;;;;;;;;;;13.00;56.90;;;;;;5044707;28;19913;-90
2022/11/28 01:14:26;;;;;;;;;;;12.90;56.40;;;;;;5060957;28;19916;-90
2022/11/28 01:16:52;;;;;;;;;;;12.80;56.70;;;;;;5070648;28;20019;-90
2022/11/28 01:19:19;;;;;;;;;;;12.80;56.00;;;;;;5046171;28;19964;-89
2022/11/28 01:21:44;;;;;;;;;;;12.70;55.90;;;;;;5044463;28;19996;-89
2022/11/28 01:24:10;;;;;;;;;;;12.70;55.60;;;;;;5037649;28;19955;-89
2022/11/28 01:26:39;;;;;;;;;;;12.60;54.80;;;;;;5054084;28;19944;-88
2022/11/28 01:29:05;;;;;;;;;;;12.70;54.90;;;;;;5062124;28;20381;-89
2022/11/28 01:31:31;;;;;;;;;;;12.80;55.40;;;;;;5035317;28;19909;-91
2022/11/28 01:33:57;;;;;;;;;;;12.80;55.20;;;;;;5041251;28;20367;-90
2022/11/28 01:36:24;;;;;;;;;;;12.80;55.00;;;;;;5062301;28;19919;-89
2022/11/28 01:38:49;;;;;;;;;;;12.80;54.00;;;;;;5062144;28;19943;-89
2022/11/28 01:41:16;;;;;;;;;;;12.90;53.70;;;;;;5035210;28;19913;-90
2022/11/28 01:44:00;;;;;;;;;;;13.00;54.30;;;;;;5047136;28;19917;-88
2022/11/28 01:46:27;;;;;;;;;;;13.10;54.80;;;;;;5046439;28;20403;-90
2022/11/28 01:48:53;;;;;;;;;;;13.10;54.40;;;;;;5073708;28;19930;-89
2022/11/28 01:51:19;;;;;;;;;;;13.10;54.80;;;;;;5043147;28;19909;-89
2022/11/28 01:53:46;;;;;;;;;;;13.20;54.50;;;;;;5057508;28;20405;-89
2022/11/28 01:56:13;;;;;;;;;;;13.30;54.30;;;;;;5048683;28;19912;-89
2022/11/28 01:58:40;;;;;;;;;;;13.30;54.20;;;;;;5047267;28;19996;-88
2022/11/28 02:01:06;;;;;;;;;;;13.30;54.40;;;;;;5035968;28;19920;-88
2022/11/28 02:03:42;;;;;;;;;;;13.30;53.70;;;;;;5054085;28;19916;-90
2022/11/28 02:06:08;;;;;;;;;;;13.30;52.80;;;;;;5057270;28;19908;-90
2022/11/28 02:08:34;;;;;;;;;;;13.30;52.90;;;;;;5057329;28;20034;-89
2022/11/28 02:11:03;;;;;;;;;;;13.30;52.60;;;;;;5055910;28;19936;-89
2022/11/28 02:13:38;;;;;;;;;;;13.30;52.70;;;;;;5056114;28;19916;-88
2022/11/28 02:16:04;;;;;;;;;;;13.20;52.10;;;;;;5041317;28;20363;-89
2022/11/28 02:18:39;;;;;;;;;;;13.20;52.70;;;;;;5047659;28;19924;-88
2022/11/28 02:21:12;;;;;;;;;;;13.10;52.70;;;;;;5057045;28;19912;-89
2022/11/28 02:23:58;;;;;;;;;;;13.00;53.40;;;;;;5040576;28;19963;-88
2022/11/28 02:26:49;;;;;;;;;;;12.90;53.70;;;;;;5007433;28;19909;-89
2022/11/28 02:29:20;;;;;;;;;;;12.70;54.20;;;;;;5065414;28;19947;-89
2022/11/28 02:32:02;;;;;;;;;;;12.60;54.70;;;;;;5052324;28;20078;-88
2022/11/28 02:34:32;;;;;;;;;;;12.50;55.50;;;;;;5043978;28;19917;-89
2022/11/28 02:37:02;;;;;;;;;;;12.40;56.20;;;;;;5074155;28;20007;-88
2022/11/28 02:39:35;;;;;;;;;;;12.40;55.90;;;;;;5074673;28;19912;-89
2022/11/28 02:42:11;;;;;;;;;;;12.40;56.20;;;;;;5056527;28;19913;-88
2022/11/28 02:44:41;;;;;;;;;;;12.50;56.30;;;;;;5047288;28;19924;-89
2022/11/28 02:47:10;;;;;;;;;;;12.50;56.20;;;;;;5062883;28;19922;-89
2022/11/28 02:49:56;;;;;;;;;;;12.50;55.70;;;;;;5061800;28;19972;-90
2022/11/28 02:52:33;;;;;;;;;;;12.50;55.30;;;;;;5053396;28;19956;-89
2022/11/28 02:54:59;;;;;;;;;;;12.60;55.40;;;;;;5034482;28;19924;-91
2022/11/28 02:57:48;;;;;;;;;;;12.70;55.60;;;;;;5053516;28;19917;-90
2022/11/28 03:00:24;;;;;;;;;;;12.70;55.10;;;;;;5030637;28;19996;-89
2022/11/28 03:02:55;;;;;;;;;;;12.80;54.80;;;;;;5035361;28;20245;-90
2022/11/28 03:05:26;;;;;;;;;;;12.80;54.70;;;;;;5053608;28;19921;-90
2022/11/28 03:08:00;;;;;;;;;;;12.90;54.60;;;;;;5055716;28;19935;-89
2022/11/28 03:10:39;;;;;;;;;;;13.00;54.80;;;;;;5044378;28;19931;-89
2022/11/28 03:13:24;;;;;;;;;;;13.00;53.80;;;;;;5035654;28;20080;-90
2022/11/28 03:15:49;;;;;;;;;;;13.00;54.00;;;;;;5043762;28;20016;-89
2022/11/28 03:18:35;;;;;;;;;;;13.10;54.50;;;;;;5034059;28;19917;-89
2022/11/28 03:21:37;;;;;;;;;;;13.20;54.70;;;;;;5034622;28;19908;-89
2022/11/28 03:24:29;;;;;;;;;;;13.30;54.70;;;;;;4970965;28;20381;-90
2022/11/28 03:26:58;;;;;;;;;;;13.20;54.10;;;;;;5030010;28;20008;-89
2022/11/28 03:29:43;;;;;;;;;;;13.30;54.00;;;;;;5052199;28;19925;-89
2022/11/28 03:32:12;;;;;;;;;;;13.20;53.80;;;;;;5049276;28;19959;-89
2022/11/28 03:34:43;;;;;;;;;;;13.00;54.30;;;;;;5087170;28;19920;-90
2022/11/28 03:37:11;;;;;;;;;;;12.90;55.10;;;;;;5089775;28;19954;-90
2022/11/28 03:39:38;;;;;;;;;;;12.80;55.50;;;;;;5047997;28;20463;-89
2022/11/28 03:42:15;;;;;;;;;;;12.80;55.80;;;;;;5036600;28;19916;-89
2022/11/28 03:44:45;;;;;;;;;;;12.70;56.10;;;;;;5043837;28;19968;-89
2022/11/28 03:47:10;;;;;;;;;;;12.60;56.40;;;;;;5037416;28;19930;-90
2022/11/28 03:49:38;;;;;;;;;;;12.60;57.10;;;;;;5053283;28;19924;-89
2022/11/28 03:52:05;;;;;;;;;;;12.50;57.10;;;;;;5037452;28;19951;-89
2022/11/28 03:54:31;;;;;;;;;;;12.50;57.30;;;;;;5040903;28;20282;-88
2022/11/28 03:57:03;;;;;;;;;;;12.30;57.00;;;;;;5051721;28;19912;-88
2022/11/28 03:59:40;;;;;;;;;;;12.30;57.60;;;;;;5063483;28;19974;-89
2022/11/28 04:02:18;;;;;;;;;;;12.20;57.40;;;;;;5074520;28;19915;-88
2022/11/28 04:04:50;;;;;;;;;;;12.20;57.60;;;;;;5069472;28;20012;-88
2022/11/28 04:07:33;;;;;;;;;;;12.10;58.30;;;;;;5074758;28;19916;-87
2022/11/28 04:10:17;;;;;;;;;;;12.10;58.70;;;;;;5059270;28;19935;-89
2022/11/28 04:12:58;;;;;;;;;;;12.00;58.80;;;;;;5054502;28;20379;-88
2022/11/28 04:15:36;;;;;;;;;;;11.90;59.20;;;;;;5056436;28;19924;-88
2022/11/28 04:18:10;;;;;;;;;;;11.90;59.30;;;;;;5076693;28;19999;-88
2022/11/28 04:20:44;;;;;;;;;;;11.90;59.60;;;;;;5060579;28;19924;-88
2022/11/28 04:23:11;;;;;;;;;;;12.00;59.70;;;;;;5072403;28;20469;-89
2022/11/28 04:25:39;;;;;;;;;;;12.00;59.90;;;;;;5062802;28;19908;-89
2022/11/28 04:28:07;;;;;;;;;;;12.10;60.10;;;;;;5059513;28;20513;-89
2022/11/28 04:30:33;;;;;;;;;;;12.20;60.20;;;;;;5053548;28;19921;-89
2022/11/28 04:33:01;;;;;;;;;;;12.20;60.30;;;;;;5054324;28;19923;-89
2022/11/28 04:35:31;;;;;;;;;;;12.30;59.80;;;;;;5090488;28;19923;-89
2022/11/28 04:37:57;;;;;;;;;;;12.30;59.00;;;;;;5065794;28;19923;-88
2022/11/28 04:40:24;;;;;;;;;;;12.30;58.40;;;;;;5050232;28;20004;-88
2022/11/28 04:42:55;;;;;;;;;;;12.30;58.50;;;;;;5068239;28;19969;-89
2022/11/28 04:45:23;;;;;;;;;;;12.20;58.60;;;;;;5053712;28;19927;-87
2022/11/28 04:47:49;;;;;;;;;;;12.30;58.60;;;;;;5056060;28;20399;-89
2022/11/28 04:50:14;;;;;;;;;;;12.30;58.50;;;;;;5047777;28;19964;-89
2022/11/28 04:52:52;;;;;;;;;;;12.30;58.30;;;;;;5066123;28;19920;-89
2022/11/28 04:55:27;;;;;;;;;;;12.30;58.60;;;;;;5060120;28;20015;-88
2022/11/28 04:57:58;;;;;;;;;;;12.30;59.00;;;;;;5038084;28;19909;-88
2022/11/28 05:00:25;;;;;;;;;;;12.40;59.00;;;;;;5069192;28;19975;-89
2022/11/28 05:02:52;;;;;;;;;;;12.40;59.10;;;;;;5070696;28;19916;-89
2022/11/28 05:05:19;;;;;;;;;;;12.40;59.10;;;;;;5082162;28;20559;-88
2022/11/28 05:07:44;;;;;;;;;;;12.40;59.10;;;;;;5054668;28;19921;-90
2022/11/28 05:10:11;;;;;;;;;;;12.40;58.40;;;;;;5052348;28;19924;-89
2022/11/28 05:12:36;;;;;;;;;;;12.30;58.40;;;;;;5052488;28;19908;-89
2022/11/28 05:15:02;;;;;;;;;;;12.20;58.60;;;;;;5040533;28;20012;-89
2022/11/28 05:17:28;;;;;;;;;;;12.10;58.70;;;;;;5056695;28;19952;-89
2022/11/28 05:19:56;;;;;;;;;;;12.10;58.80;;;;;;5038271;28;20254;-89
2022/11/28 05:22:21;;;;;;;;;;;12.10;59.00;;;;;;5037955;28;19995;-89
2022/11/28 05:24:47;;;;;;;;;;;12.10;59.00;;;;;;5055966;28;20003;-90
2022/11/28 05:27:12;;;;;;;;;;;12.10;59.10;;;;;;5057039;28;19909;-88
2022/11/28 05:29:42;;;;;;;;;;;12.10;59.30;;;;;;5075988;28;19970;-89
2022/11/28 05:32:10;;;;;;;;;;;12.10;59.30;;;;;;5074336;28;19913;-88
2022/11/28 05:34:36;;;;;;;;;;;12.20;59.50;;;;;;5055374;28;19924;-88
2022/11/28 05:37:02;;;;;;;;;;;12.20;59.70;;;;;;5037754;28;20284;-89
2022/11/28 05:39:28;;;;;;;;;;;12.20;59.50;;;;;;5058031;28;20367;-88
2022/11/28 05:41:54;;;;;;;;;;;12.30;59.50;;;;;;5051600;28;19920;-89
2022/11/28 05:44:20;;;;;;;;;;;12.30;59.50;;;;;;5066129;28;19943;-88
2022/11/28 05:46:46;;;;;;;;;;;12.30;59.60;;;;;;5047741;28;19913;-89
2022/11/28 05:49:11;;;;;;;;;;;12.40;59.80;;;;;;5038649;28;19959;-87
2022/11/28 05:51:37;;;;;;;;;;;12.40;59.60;;;;;;5052000;28;20399;-88
2022/11/28 05:54:03;;;;;;;;;;;12.40;59.40;;;;;;5041953;28;20011;-89
2022/11/28 05:56:29;;;;;;;;;;;12.40;59.50;;;;;;5052673;28;19912;-89
2022/11/28 05:58:54;;;;;;;;;;;12.40;59.40;;;;;;5040008;28;20007;-89
2022/11/28 06:01:24;;;;;;;;;;;12.40;59.40;;;;;;5053387;28;19921;-89
2022/11/28 06:03:51;;;;;;;;;;;12.50;59.50;;;;;;5050915;28;19921;-88
2022/11/28 06:06:20;;;;;;;;;;;12.50;59.70;;;;;;5052745;28;19920;-88
2022/11/28 06:08:47;;;;;;;;;;;12.60;59.90;;;;;;5054511;28;20002;-88
2022/11/28 06:11:14;;;;;;;;;;;12.70;60.00;;;;;;5063717;28;19923;-88
2022/11/28 06:13:42;;;;;;;;;;;12.70;60.00;;;;;;5066079;28;20367;-89
2022/11/28 06:19:00;;;;;;;;;;;12.60;59.80;;;;;;5053399;28;19936;-87
2022/11/28 06:21:28;;;;;;;;;;;12.50;59.70;;;;;;5071865;28;19913;-88
2022/11/28 06:23:55;;;;;;;;;;;12.40;59.90;;;;;;5052770;28;19959;-88
2022/11/28 06:26:22;;;;;;;;;;;12.30;59.90;;;;;;5053706;28;19913;-89
2022/11/28 06:28:48;;;;;;;;;;;12.30;60.00;;;;;;5052664;28;20314;-88
2022/11/28 06:31:17;;;;;;;;;;;12.20;60.20;;;;;;5043174;28;19924;-87
2022/11/28 06:33:42;;;;;;;;;;;12.10;60.20;;;;;;5067537;28;19912;-89
2022/11/28 06:36:11;;;;;;;;;;;12.10;60.40;;;;;;5059980;28;19923;-88
2022/11/28 06:38:37;;;;;;;;;;;12.00;60.60;;;;;;5071965;28;19912;-88
2022/11/28 06:41:04;;;;;;;;;;;12.00;60.60;;;;;;5054886;28;19917;-87
2022/11/28 06:43:37;;;;;;;;;;;11.90;60.80;;;;;;5055934;28;19908;-88
2022/11/28 06:46:03;;;;;;;;;;;11.90;60.90;;;;;;5059777;28;19920;-88
2022/11/28 06:48:28;;;;;;;;;;;11.80;60.70;;;;;;5072578;28;19936;-87
2022/11/28 06:51:00;;;;;;;;;;;11.80;60.80;;;;;;5065362;28;20391;-88
2022/11/28 06:53:26;;;;;;;;;;;11.80;60.90;;;;;;5057365;28;19920;-86
2022/11/28 06:55:52;;;;;;;;;;;11.70;60.80;;;;;;5061478;28;19920;-86
2022/11/28 06:58:17;;;;;;;;;;;11.60;60.80;;;;;;5064248;28;20007;-86
2022/11/28 07:00:44;;;;;;;;;;;11.50;61.10;;;;;;5068752;28;20379;-87
2022/11/28 07:03:11;;;;;;;;;;;11.50;61.20;;;;;;5060505;28;19942;-86
2022/11/28 07:05:37;;;;;;;;;;;11.40;61.30;;;;;;5069151;28;19974;-86
2022/11/28 07:08:02;;;;;;;;;;;11.40;61.50;;;;;;5055595;28;19913;-86
2022/11/28 07:10:28;;;;;;;;;;;11.40;61.70;;;;;;5037536;28;19935;-87
2022/11/28 07:12:57;;;;;;;;;;;11.40;61.80;;;;;;5051186;28;19917;-88
2022/11/28 07:15:22;;;;;;;;;;;11.40;61.90;;;;;;5046589;28;19921;-87
2022/11/28 07:17:48;;;;;;;;;;;11.40;62.00;;;;;;5055282;28;20489;-86
2022/11/28 07:20:13;;;;;;;;;;;11.40;62.00;;;;;;5056577;28;19943;-87
2022/11/28 07:22:39;;;;;;;;;;;11.40;62.00;;;;;;5031465;28;19919;-88
2022/11/28 07:25:05;;;;;;;;;;;11.40;62.00;;;;;;5031540;28;19925;-88
2022/11/28 07:27:30;;;;;;;;;;;11.40;62.20;;;;;;5049736;28;20387;-88
2022/11/28 07:29:56;;;;;;;;;;;11.50;62.40;;;;;;5050080;28;19936;-87
2022/11/28 07:32:22;;;;;;;;;;;11.40;62.30;;;;;;5048530;28;19912;-89
2022/11/28 07:34:47;;;;;;;;;;;11.50;62.30;;;;;;5084841;28;19920;-88
2022/11/28 07:37:14;;;;;;;;;;;11.50;62.30;;;;;;5089531;28;19920;-88
2022/11/28 07:40:00;;;;;;;;;;;11.60;62.20;;;;;;5089392;28;20423;-88
2022/11/28 07:42:26;;;;;;;;;;;11.60;62.30;;;;;;5087628;28;19967;-87
2022/11/28 07:44:52;;;;;;;;;;;11.60;62.10;;;;;;5057721;28;19925;-87
2022/11/28 07:47:17;;;;;;;;;;;11.70;62.10;;;;;;5030943;28;20279;-89
2022/11/28 07:49:44;;;;;;;;;;;11.70;62.00;;;;;;5048448;28;19943;-87
2022/11/28 07:52:09;;;;;;;;;;;11.70;62.10;;;;;;5030648;28;20312;-88
2022/11/28 07:54:35;;;;;;;;;;;11.70;61.90;;;;;;5030397;28;19925;-87
2022/11/28 07:57:00;;;;;;;;;;;11.70;61.90;;;;;;5030666;28;19939;-87
2022/11/28 07:59:25;;;;;;;;;;;11.80;61.90;;;;;;5048346;28;20023;-88
2022/11/28 08:01:52;;;;;;;;;;;11.80;61.90;;;;;;5048646;28;19912;-88
2022/11/28 08:04:18;;;;;;;;;;;11.80;61.80;;;;;;5030953;28;20355;-88
2022/11/28 08:06:43;;;;;;;;;;;11.80;61.90;;;;;;5050239;28;19948;-89
2022/11/28 08:09:10;;;;;;;;;;;11.80;61.90;;;;;;5047288;28;20011;-87
2022/11/28 08:11:36;;;;;;;;;;;11.80;61.90;;;;;;5053189;28;20311;-87
2022/11/28 08:14:01;;;;;;;;;;;11.80;61.90;;;;;;5047741;28;19924;-87
2022/11/28 08:16:27;;;;;;;;;;;11.80;62.00;;;;;;5039637;28;20271;-88
2022/11/28 08:18:53;;;;;;;;;;;11.70;62.00;;;;;;5054405;28;19924;-87
2022/11/28 08:21:25;;;;;;;;;;;11.80;62.10;;;;;;5053921;28;19931;-86
2022/11/28 08:23:51;;;;;;;;;;;11.80;62.20;;;;;;5044296;28;19962;-87
2022/11/28 08:26:17;;;;;;;;;;;11.80;62.20;;;;;;5034323;28;21606;-87
2022/11/28 08:28:43;;;;;;;;;;;11.80;62.20;;;;;;5038095;28;20418;-87
2022/11/28 08:31:10;;;;;;;;;;;11.80;62.20;;;;;;5057346;28;19928;-89
2022/11/28 08:33:35;;;;;;;;;;;11.80;62.30;;;;;;5055840;28;19916;-88
2022/11/28 08:36:03;;;;;;;;;;;11.70;62.20;;;;;;5035609;28;19928;-88
2022/11/28 08:38:28;;;;;;;;;;;11.70;62.30;;;;;;5068879;28;19966;-86
2022/11/28 08:40:59;;;;;;;;;;;11.70;62.30;;;;;;5061908;28;19921;-87
2022/11/28 08:43:24;;;;;;;;;;;11.70;62.30;;;;;;5069307;28;20265;-87
2022/11/28 08:45:50;;;;;;;;;;;11.70;62.30;;;;;;5052992;28;19925;-87
2022/11/28 08:48:16;;;;;;;;;;;11.70;62.30;;;;;;5029625;28;19971;-88
2022/11/28 08:50:46;;;;;;;;;;;11.70;62.40;;;;;;5041074;28;19928;-86
2022/11/28 08:53:11;;;;;;;;;;;11.70;62.50;;;;;;5050147;28;19912;-87
2022/11/28 08:55:39;;;;;;;;;;;11.70;62.60;;;;;;5063652;28;19924;-87
2022/11/28 08:58:04;;;;;;;;;;;11.70;62.50;;;;;;5030301;28;19912;-88
2022/11/28 09:00:30;;;;;;;;;;;11.70;62.70;;;;;;5048180;28;20074;-88
2022/11/28 09:02:56;;;;;;;;;;;11.80;62.60;;;;;;5037802;28;20377;-86
2022/11/28 09:05:21;;;;;;;;;;;11.80;62.70;;;;;;5058327;28;19927;-86
2022/11/28 09:07:47;;;;;;;;;;;11.80;62.70;;;;;;5065181;28;19916;-88
2022/11/28 09:10:12;;;;;;;;;;;11.80;62.70;;;;;;5044352;28;19928;-87
2022/11/28 09:12:38;;;;;;;;;;;11.80;62.70;;;;;;5064233;28;19916;-86
2022/11/28 09:15:04;;;;;;;;;;;11.90;62.80;;;;;;5067382;28;19923;-88
2022/11/28 09:17:29;;;;;;;;;;;12.00;62.90;;;;;;5067621;28;19918;-87
2022/11/28 09:19:57;;;;;;;;;;;12.00;62.90;;;;;;5046413;28;19972;-89
2022/11/28 09:22:23;;;;;;;;;;;12.00;62.90;;;;;;5038487;28;19932;-86
2022/11/28 09:24:48;;;;;;;;;;;12.20;62.90;;;;;;5054792;28;19921;-88
2022/11/28 09:27:14;;;;;;;;;;;12.20;63.00;;;;;;5051328;28;19920;-87
2022/11/28 09:29:39;;;;;;;;;;;12.30;63.00;;;;;;5047265;28;19925;-89
2022/11/28 09:32:05;;;;;;;;;;;12.40;62.90;;;;;;5036394;28;19935;-88
2022/11/28 09:34:30;;;;;;;;;;;12.50;62.80;;;;;;5038638;28;19924;-89
2022/11/28 09:36:56;;;;;;;;;;;12.50;62.80;;;;;;5043491;28;19927;-90
2022/11/28 09:39:22;;;;;;;;;;;12.60;62.60;;;;;;5032178;28;19921;-88
2022/11/28 09:42:06;;;;;;;;;;;12.60;62.50;;;;;;5048700;28;19921;-88
2022/11/28 09:44:31;;;;;;;;;;;12.70;62.50;;;;;;5047108;28;19924;-87
2022/11/28 09:46:59;;;;;;;;;;;12.70;62.50;;;;;;5029487;28;20414;-87
2022/11/28 09:49:30;;;;;;;;;;;12.70;62.40;;;;;;5065258;28;19928;-87
2022/11/28 09:52:03;;;;;;;;;;;12.70;62.50;;;;;;5048938;28;19978;-89
2022/11/28 09:54:42;;;;;;;;;;;12.80;62.30;;;;;;5068412;28;19913;-88
2022/11/28 09:57:13;;;;;;;;;;;12.80;62.30;;;;;;5032319;28;19921;-86
2022/11/28 09:59:39;;;;;;;;;;;12.80;62.40;;;;;;5041704;28;20426;-88
2022/11/28 10:02:22;;;;;;;;;;;12.80;62.10;;;;;;5067506;28;20307;-87
2022/11/28 10:05:00;;;;;;;;;;;12.80;62.10;;;;;;5047823;28;20285;-88
2022/11/28 10:07:36;;;;;;;;;;;12.70;62.10;;;;;;5052689;28;19924;-88
2022/11/28 10:10:21;;;;;;;;;;;12.70;62.10;;;;;;5071127;28;20460;-88
2022/11/28 10:12:57;;;;;;;;;;;12.60;62.00;;;;;;5041769;28;20661;-87
2022/11/28 10:15:35;;;;;;;;;;;12.50;62.20;;;;;;5068015;28;19917;-88
2022/11/28 10:18:06;;;;;;;;;;;12.50;62.30;;;;;;5052108;28;20432;-88
2022/11/28 10:20:35;;;;;;;;;;;12.40;62.30;;;;;;5056159;28;20574;-88
2022/11/28 10:23:11;;;;;;;;;;;12.40;62.50;;;;;;5057161;28;19982;-89
2022/11/28 10:25:40;;;;;;;;;;;12.40;62.70;;;;;;5052440;28;20038;-89
2022/11/28 10:28:12;;;;;;;;;;;12.40;62.60;;;;;;5039036;28;20052;-88
2022/11/28 10:30:40;;;;;;;;;;;12.40;62.70;;;;;;5056198;28;20012;-88
2022/11/28 10:33:08;;;;;;;;;;;12.50;62.80;;;;;;5037850;28;19920;-88
2022/11/28 10:35:43;;;;;;;;;;;12.60;63.00;;;;;;5055001;28;20743;-87
2022/11/28 10:38:10;;;;;;;;;;;12.60;62.90;;;;;;5055730;28;20329;-88
2022/11/28 10:40:58;;;;;;;;;;;12.70;62.90;;;;;;5048963;28;19921;-87
2022/11/28 10:43:30;;;;;;;;;;;12.70;63.00;;;;;;5064346;28;20002;-86
2022/11/28 10:45:55;;;;;;;;;;;12.70;62.90;;;;;;5035602;28;19925;-87
2022/11/28 10:48:39;;;;;;;;;;;12.80;63.00;;;;;;5041487;28;19932;-88
2022/11/28 10:51:18;;;;;;;;;;;12.80;62.90;;;;;;5059989;28;19924;-87
2022/11/28 10:53:43;;;;;;;;;;;12.90;63.00;;;;;;5052112;28;19917;-88
2022/11/28 10:56:09;;;;;;;;;;;12.90;63.00;;;;;;5039770;28;19923;-88
2022/11/28 10:58:37;;;;;;;;;;;13.00;63.00;;;;;;5054432;28;19917;-88
2022/11/28 11:01:03;;;;;;;;;;;13.10;62.90;;;;;;5057787;28;19924;-87
2022/11/28 11:03:30;;;;;;;;;;;13.10;62.90;;;;;;5056677;28;19920;-88
2022/11/28 11:05:59;;;;;;;;;;;13.20;62.70;;;;;;5047390;28;19921;-88
2022/11/28 11:08:25;;;;;;;;;;;13.30;62.90;;;;;;5039982;28;19924;-88
2022/11/28 11:11:09;;;;;;;;;;;13.30;62.90;;;;;;5042816;28;19932;-88
2022/11/28 11:13:54;;;;;;;;;;;13.40;62.90;;;;;;5042834;28;19924;-88
2022/11/28 11:16:21;;;;;;;;;;;13.40;63.00;;;;;;5055894;28;19995;-87
2022/11/28 11:18:46;;;;;;;;;;;13.50;62.80;;;;;;5049907;28;19923;-88
2022/11/28 11:21:12;;;;;;;;;;;13.50;62.80;;;;;;5063423;28;20500;-88
2022/11/28 11:23:37;;;;;;;;;;;13.60;62.60;;;;;;5059360;28;19975;-88
2022/11/28 11:26:04;;;;;;;;;;;13.60;62.30;;;;;;5040092;28;19917;-87
2022/11/28 11:28:30;;;;;;;;;;;13.60;62.30;;;;;;5056387;28;20322;-88
2022/11/28 11:31:00;;;;;;;;;;;13.60;62.40;;;;;;5051370;28;20323;-88
2022/11/28 11:33:29;;;;;;;;;;;13.70;62.60;;;;;;5056926;28;19982;-88
2022/11/28 11:35:54;;;;;;;;;;;13.80;62.60;;;;;;5036985;28;19916;-88
2022/11/28 11:38:20;;;;;;;;;;;13.80;62.40;;;;;;5047533;28;20385;-89
2022/11/28 11:40:46;;;;;;;;;;;13.80;62.50;;;;;;5058463;28;20309;-88
2022/11/28 11:43:25;;;;;;;;;;;13.90;62.60;;;;;;5048348;28;19927;-87
2022/11/28 11:46:06;;;;;;;;;;;13.90;62.50;;;;;;5047126;28;19920;-90
2022/11/28 11:48:35;;;;;;;;;;;13.90;62.10;;;;;;5039198;28;20355;-89
2022/11/28 11:51:01;;;;;;;;;;;14.00;62.50;;;;;;5047995;28;19928;-88
2022/11/28 11:53:26;;;;;;;;;;;14.00;62.50;;;;;;5051145;28;19929;-88
2022/11/28 11:55:55;;;;;;;;;;;14.10;62.50;;;;;;5045137;28;19964;-87
2022/11/28 11:58:23;;;;;;;;;;;14.10;62.50;;;;;;5063991;28;20347;-87
2022/11/28 12:00:50;;;;;;;;;;;14.20;62.40;;;;;;5046550;28;19943;-87
2022/11/28 12:03:32;;;;;;;;;;;14.20;62.50;;;;;;5035721;28;19939;-88
2022/11/28 12:06:10;;;;;;;;;;;14.20;62.40;;;;;;5047374;28;20006;-89
2022/11/28 12:08:42;;;;;;;;;;;14.20;62.40;;;;;;5042136;28;19956;-87
2022/11/28 12:11:26;;;;;;;;;;;14.30;62.60;;;;;;5058611;28;19925;-89
2022/11/28 12:13:52;;;;;;;;;;;14.30;62.70;;;;;;5041073;28;20022;-88
2022/11/28 12:16:36;;;;;;;;;;;14.40;62.70;;;;;;5050248;28;20091;-87
2022/11/28 12:19:05;;;;;;;;;;;14.40;62.40;;;;;;5044076;28;19916;-89
2022/11/28 12:21:43;;;;;;;;;;;14.40;62.20;;;;;;5057373;28;20002;-89
2022/11/28 12:24:14;;;;;;;;;;;14.40;62.00;;;;;;5055970;28;20012;-89
2022/11/28 12:26:39;;;;;;;;;;;14.50;62.10;;;;;;5046088;28;20586;-88
2022/11/28 12:29:08;;;;;;;;;;;14.40;62.10;;;;;;5056353;28;19981;-88
2022/11/28 12:32:01;;;;;;;;;;;14.50;62.10;;;;;;5049971;28;20032;-88
2022/11/28 12:34:46;;;;;;;;;;;14.50;62.00;;;;;;5061826;28;19998;-88
2022/11/28 12:37:30;;;;;;;;;;;14.50;62.10;;;;;;5039073;28;19920;-87
2022/11/28 12:39:58;;;;;;;;;;;14.40;62.40;;;;;;5060934;28;20601;-90
2022/11/28 12:42:42;;;;;;;;;;;14.50;62.40;;;;;;5057914;28;20055;-88
2022/11/28 12:45:26;;;;;;;;;;;14.40;62.20;;;;;;5047776;28;20060;-88
2022/11/28 12:48:01;;;;;;;;;;;14.50;62.10;;;;;;5061209;28;19921;-89
2022/11/28 12:53:36;;;;;;;;;;;14.40;62.20;;;;;;5033254;23;19936;-88
2022/11/28 12:56:13;;;;;;;;;;;14.30;62.10;;;;;;5011284;28;20284;-88
2022/11/28 12:58:42;;;;;;;;;;;14.20;62.40;;;;;;5026344;28;19917;-88
2022/11/28 13:01:26;;;;;;;;;;;14.10;62.40;;;;;;5006578;28;20570;-89
2022/11/28 13:04:04;;;;;;;;;;;14.10;62.50;;;;;;5030454;28;19921;-88
2022/11/28 13:06:43;;;;;;;;;;;14.10;62.60;;;;;;5009205;28;19921;-88
2022/11/28 13:09:20;;;;;;;;;;;14.10;62.50;;;;;;5026421;28;19921;-89
2022/11/28 13:12:06;;;;;;;;;;;14.00;62.40;;;;;;5029320;28;19972;-86
2022/11/28 13:14:53;;;;;;;;;;;14.00;62.10;;;;;;5010898;28;19963;-88
2022/11/28 13:17:31;;;;;;;;;;;14.00;62.30;;;;;;5009697;28;20721;-87
2022/11/28 13:20:06;;;;;;;;;;;14.00;62.30;;;;;;5031390;28;19919;-89
2022/11/28 13:22:38;;;;;;;;;;;14.00;62.40;;;;;;5009100;28;19968;-89
2022/11/28 13:25:10;;;;;;;;;;;14.00;62.40;;;;;;5025935;28;19920;-89
2022/11/28 13:28:11;;;;;;;;;;;14.10;62.40;;;;;;5006407;28;19921;-89
2022/11/28 13:30:52;;;;;;;;;;;14.10;62.50;;;;;;4999416;28;19936;-88
2022/11/28 13:33:26;;;;;;;;;;;14.10;62.40;;;;;;5028075;28;19916;-89
2022/11/28 13:35:52;;;;;;;;;;;14.10;62.40;;;;;;5027027;28;19968;-88
2022/11/28 13:38:24;;;;;;;;;;;14.00;62.40;;;;;;5013140;28;19925;-90
2022/11/28 13:41:04;;;;;;;;;;;14.00;62.40;;;;;;5014929;28;20360;-88
2022/11/28 13:43:39;;;;;;;;;;;13.90;62.30;;;;;;5013434;28;19917;-89
2022/11/28 13:46:08;;;;;;;;;;;13.80;62.40;;;;;;5031327;28;19983;-90
2022/11/28 13:48:34;;;;;;;;;;;13.70;62.40;;;;;;5009286;28;19941;-88
2022/11/28 13:51:08;;;;;;;;;;;13.70;62.60;;;;;;5013236;28;20308;-88
2022/11/28 13:53:34;;;;;;;;;;;13.60;62.50;;;;;;5028306;28;19931;-88
2022/11/28 13:56:06;;;;;;;;;;;13.50;62.40;;;;;;5013029;28;19944;-89
2022/11/28 13:58:50;;;;;;;;;;;13.40;62.20;;;;;;5013902;28;19925;-88
2022/11/28 14:01:20;;;;;;;;;;;13.30;62.40;;;;;;5014145;28;19921;-87
2022/11/28 14:04:04;;;;;;;;;;;13.20;62.40;;;;;;5031162;28;19917;-87
2022/11/28 14:06:35;;;;;;;;;;;13.10;62.80;;;;;;5030749;28;19921;-87
2022/11/28 14:09:01;;;;;;;;;;;13.10;62.80;;;;;;5013983;28;19917;-90
2022/11/28 14:11:48;;;;;;;;;;;13.10;62.90;;;;;;5013539;28;19927;-89
2022/11/28 14:14:20;;;;;;;;;;;13.00;63.00;;;;;;5031310;28;20000;-87
2022/11/28 14:16:45;;;;;;;;;;;13.00;63.00;;;;;;5032584;28;19921;-85
2022/11/28 14:19:23;;;;;;;;;;;13.00;63.20;;;;;;5013823;28;19920;-87
2022/11/28 14:22:00;;;;;;;;;;;13.00;63.30;;;;;;5031505;28;19921;-89
2022/11/28 14:24:36;;;;;;;;;;;13.00;63.50;;;;;;4994850;28;20116;-86
2022/11/28 14:27:02;;;;;;;;;;;13.10;63.60;;;;;;4994083;28;19917;-88
2022/11/28 14:29:39;;;;;;;;;;;13.00;63.50;;;;;;5011318;28;19922;-88
2022/11/28 14:32:05;;;;;;;;;;;13.10;63.60;;;;;;5011668;28;20057;-89
2022/11/28 14:34:33;;;;;;;;;;;13.20;63.70;;;;;;5021566;28;19944;-88
2022/11/28 14:37:26;;;;;;;;;;;13.20;63.50;;;;;;5051482;28;20465;-89
2022/11/28 14:39:52;;;;;;;;;;;13.20;63.40;;;;;;5014458;28;19916;-89